createdAt,value
2023-05-11T00:00:39.301Z,101512.31
2023-05-11T00:03:06.310Z,101516.47
2023-05-11T00:05:32.916Z,101509.66
2023-05-11T00:07:59.372Z,101511.97
2023-05-11T00:10:25.868Z,101502.88
2023-05-11T00:12:52.376Z,101499.88
2023-05-11T00:15:19.072Z,101500.22
2023-05-11T00:17:45.672Z,101493.06
2023-05-11T00:20:12.200Z,101496.50
2023-05-11T00:22:39.182Z,101495.34
2023-05-11T00:25:06.496Z,101499.47
2023-05-11T00:27:33.047Z,101490.06
2023-05-11T00:29:59.509Z,101493.47
2023-05-11T00:32:26.054Z,101490.06
2023-05-11T00:34:52.519Z,101494.59
2023-05-11T00:37:18.948Z,101494.59
2023-05-11T00:39:45.478Z,101485.94
2023-05-11T00:42:11.920Z,101488.56
2023-05-11T00:44:38.319Z,101487.03
2023-05-11T00:47:04.956Z,101487.41
2023-05-11T00:49:31.603Z,101486.31
2023-05-11T00:51:58.214Z,101489.31
2023-05-11T00:54:24.793Z,101495.00
2023-05-11T00:56:51.837Z,101499.88
2023-05-11T00:59:18.745Z,101505.16
2023-05-11T01:01:45.687Z,101499.13
2023-05-11T01:04:12.814Z,101494.59
2023-05-11T01:06:55.644Z,101496.09
2023-05-11T01:09:40.159Z,101492.31
2023-05-11T01:12:11.145Z,101492.34
2023-05-11T01:14:42.494Z,101493.84
2023-05-11T01:17:19.527Z,101501.78
2023-05-11T01:20:01.516Z,101506.69
2023-05-11T01:22:40.798Z,101500.25
2023-05-11T01:25:19.068Z,101502.94
2023-05-11T01:28:08.006Z,101496.50
2023-05-11T01:30:44.443Z,101501.78
2023-05-11T01:33:13.078Z,101501.41
2023-05-11T01:35:45.895Z,101506.69
2023-05-11T01:38:14.586Z,101502.53
2023-05-11T01:40:43.686Z,101502.16
2023-05-11T01:43:14.355Z,101505.91
2023-05-11T01:45:51.421Z,101505.16
2023-05-11T01:48:22.673Z,101504.81
2023-05-11T01:50:51.239Z,101507.09
2023-05-11T01:53:19.598Z,101507.81
2023-05-11T01:55:48.926Z,101505.16
2023-05-11T01:58:17.795Z,101507.81
2023-05-11T02:00:45.558Z,101505.91
2023-05-11T02:03:13.992Z,101513.50
2023-05-11T02:05:42.847Z,101516.50
2023-05-11T02:08:10.482Z,101518.03
2023-05-11T02:10:39.227Z,101522.53
2023-05-11T02:13:06.374Z,101521.41
2023-05-11T02:15:34.176Z,101521.78
2023-05-11T02:18:01.789Z,101518.78
2023-05-11T02:20:28.379Z,101519.53
2023-05-11T02:22:56.555Z,101518.03
2023-05-11T02:25:24.458Z,101517.25
2023-05-11T02:27:51.479Z,101514.63
2023-05-11T02:30:18.338Z,101517.25
2023-05-11T02:32:50.628Z,101515.38
2023-05-11T02:35:21.771Z,101514.25
2023-05-11T02:37:49.479Z,101507.47
2023-05-11T02:40:18.913Z,101510.09
2023-05-11T02:42:48.903Z,101514.63
2023-05-11T02:45:17.722Z,101513.13
2023-05-11T02:47:51.902Z,101518.03
2023-05-11T02:50:19.659Z,101521.03
2023-05-11T02:52:49.015Z,101518.03
2023-05-11T02:55:20.850Z,101524.44
2023-05-11T02:57:47.762Z,101516.50
2023-05-11T03:00:14.550Z,101511.59
2023-05-11T03:02:41.235Z,101512.00
2023-05-11T03:05:08.050Z,101505.56
2023-05-11T03:07:34.908Z,101511.97
2023-05-11T03:10:02.869Z,101509.34
2023-05-11T03:12:33.896Z,101508.22
2023-05-11T03:15:01.621Z,101508.19
2023-05-11T03:17:29.005Z,101511.22
2023-05-11T03:19:58.155Z,101510.47
2023-05-11T03:22:25.925Z,101512.34
2023-05-11T03:24:52.868Z,101513.09
2023-05-11T03:27:19.555Z,101509.72
2023-05-11T03:29:47.974Z,101508.97
2023-05-11T03:32:14.504Z,101505.25
2023-05-11T03:34:41.017Z,101501.84
2023-05-11T03:37:12.739Z,101504.06
2023-05-11T03:39:40.979Z,101496.91
2023-05-11T03:42:08.566Z,101493.91
2023-05-11T03:44:36.103Z,101504.09
2023-05-11T03:47:04.085Z,101500.69
2023-05-11T03:49:30.980Z,101499.19
2023-05-11T03:51:57.732Z,101510.13
2023-05-11T03:54:24.488Z,101508.22
2023-05-11T03:56:52.127Z,101516.16
2023-05-11T03:59:18.613Z,101507.88
2023-05-11T04:01:45.335Z,101506.00
2023-05-11T04:04:12.203Z,101513.53
2023-05-11T04:06:38.794Z,101507.84
2023-05-11T04:09:05.244Z,101509.34
2023-05-11T04:11:36.272Z,101505.97
2023-05-11T04:14:02.757Z,101511.25
2023-05-11T04:16:29.372Z,101512.75
2023-05-11T04:18:56.304Z,101508.22
2023-05-11T04:21:22.760Z,101509.75
2023-05-11T04:23:49.152Z,101508.22
2023-05-11T04:26:15.678Z,101515.81
2023-05-11T04:28:42.203Z,101518.03
2023-05-11T04:31:08.620Z,101517.28
2023-05-11T04:33:35.037Z,101521.03
2023-05-11T04:36:01.516Z,101521.44
2023-05-11T04:38:27.941Z,101516.94
2023-05-11T04:40:54.350Z,101519.56
2023-05-11T04:43:21.015Z,101521.81
2023-05-11T04:45:49.060Z,101521.44
2023-05-11T04:48:17.386Z,101525.22
2023-05-11T04:50:46.330Z,101524.09
2023-05-11T04:53:12.755Z,101526.72
2023-05-11T04:55:39.623Z,101529.75
2023-05-11T04:58:06.289Z,101530.50
2023-05-11T05:00:32.727Z,101529.38
2023-05-11T05:02:59.250Z,101532.38
2023-05-11T05:05:25.835Z,101535.41
2023-05-11T05:07:52.250Z,101537.28
2023-05-11T05:10:19.029Z,101540.31
2023-05-11T05:12:45.717Z,101542.94
2023-05-11T05:15:12.486Z,101548.22
2023-05-11T05:17:39.046Z,101536.53
2023-05-11T05:20:07.073Z,101553.13
2023-05-11T05:22:34.246Z,101546.72
2023-05-11T05:25:00.840Z,101549.34
2023-05-11T05:27:27.376Z,101545.97
2023-05-11T05:29:53.867Z,101543.69
2023-05-11T05:32:20.399Z,101545.97
2023-05-11T05:34:49.762Z,101543.72
2023-05-11T05:37:18.547Z,101549.38
2023-05-11T05:39:46.466Z,101557.31
2023-05-11T05:42:14.312Z,101555.78
2023-05-11T05:44:40.866Z,101561.81
2023-05-11T05:47:07.277Z,101553.88
2023-05-11T05:49:33.689Z,101566.72
2023-05-11T05:52:00.239Z,101566.34
2023-05-11T05:54:26.669Z,101570.50
2023-05-11T05:56:53.431Z,101571.25
2023-05-11T05:59:23.430Z,101573.91
2023-05-11T06:01:51.377Z,101570.13
2023-05-11T06:04:18.388Z,101582.94
2023-05-11T06:06:44.957Z,101579.94
2023-05-11T06:09:11.481Z,101584.44
2023-05-11T06:11:38.289Z,101580.28
2023-05-11T06:14:04.865Z,101585.94
2023-05-11T06:16:31.335Z,101575.75
2023-05-11T06:18:57.800Z,101584.03
2023-05-11T06:21:24.686Z,101586.31
2023-05-11T06:23:51.434Z,101591.22
2023-05-11T06:26:18.567Z,101584.81
2023-05-11T06:28:45.012Z,101584.41
2023-05-11T06:31:11.489Z,101585.91
2023-05-11T06:33:38.010Z,101588.56
2023-05-11T06:36:06.036Z,101584.78
2023-05-11T06:38:32.741Z,101591.56
2023-05-11T06:40:59.199Z,101595.31
2023-05-11T06:43:25.642Z,101593.44
2023-05-11T06:45:52.243Z,101608.53
2023-05-11T06:48:19.891Z,101591.94
2023-05-11T06:50:48.569Z,101596.09
2023-05-11T06:53:17.084Z,101608.19
2023-05-11T06:55:44.218Z,101603.28
2023-05-11T06:58:10.671Z,101617.22
2023-05-11T07:00:37.214Z,101613.09
2023-05-11T07:03:03.762Z,101612.72
2023-05-11T07:05:30.561Z,101613.84
2023-05-11T07:07:57.322Z,101606.28
2023-05-11T07:10:24.082Z,101606.28
2023-05-11T07:12:50.589Z,101602.53
2023-05-11T07:15:17.057Z,101607.44
2023-05-11T07:17:47.762Z,101608.94
2023-05-11T07:20:14.570Z,101613.84
2023-05-11T07:22:41.040Z,101617.25
2023-05-11T07:25:09.681Z,101609.72
2023-05-11T07:27:36.338Z,101610.09
2023-05-11T07:30:04.244Z,101607.06
2023-05-11T07:32:30.802Z,101608.19
2023-05-11T07:34:57.399Z,101614.22
2023-05-11T07:37:23.950Z,101603.28
2023-05-11T07:39:50.412Z,101608.56
2023-05-11T07:42:16.842Z,101611.22
2023-05-11T07:44:43.353Z,101607.06
2023-05-11T07:47:10.502Z,101604.78
2023-05-11T07:49:43.534Z,101607.06
2023-05-11T07:52:11.258Z,101608.19
2023-05-11T07:54:37.862Z,101608.19
2023-05-11T07:57:05.006Z,101603.28
2023-05-11T07:59:31.507Z,101607.06
2023-05-11T08:01:58.271Z,101609.72
2023-05-11T08:04:27.537Z,101614.22
2023-05-11T08:06:53.977Z,101623.66
2023-05-11T08:09:20.400Z,101614.63
2023-05-11T08:11:46.864Z,101615.34
2023-05-11T08:14:13.587Z,101621.75
2023-05-11T08:16:40.050Z,101620.25
2023-05-11T08:19:06.741Z,101624.38
2023-05-11T08:21:33.296Z,101622.88
2023-05-11T08:23:59.787Z,101623.66
2023-05-11T08:26:26.215Z,101623.22
2023-05-11T08:28:53.799Z,101629.28
2023-05-11T08:31:20.483Z,101630.03
2023-05-11T08:33:47.036Z,101628.16
2023-05-11T08:36:13.660Z,101621.34
2023-05-11T08:38:40.370Z,101619.47
2023-05-11T08:41:07.840Z,101623.63
2023-05-11T08:43:36.081Z,101616.06
2023-05-11T08:46:10.079Z,101621.72
2023-05-11T08:48:37.444Z,101620.56
2023-05-11T08:51:04.452Z,101619.09
2023-05-11T08:53:31.026Z,101615.69
2023-05-11T08:55:58.987Z,101611.94
2023-05-11T08:58:26.813Z,101614.16
2023-05-11T09:00:54.654Z,101606.25
2023-05-11T09:03:22.502Z,101606.66
2023-05-11T09:05:49.578Z,101611.56
2023-05-11T09:08:18.631Z,101610.00
2023-05-11T09:10:45.988Z,101607.78
2023-05-11T09:13:12.805Z,101616.44
2023-05-11T09:15:39.482Z,101616.84
2023-05-11T09:18:06.248Z,101619.47
2023-05-11T09:20:33.914Z,101616.84
2023-05-11T09:23:00.982Z,101617.22
2023-05-11T09:25:32.314Z,101618.72
2023-05-11T09:28:00.228Z,101616.84
2023-05-11T09:30:27.616Z,101618.72
2023-05-11T09:32:59.278Z,101619.81
2023-05-11T09:35:33.959Z,101628.13
2023-05-11T09:38:07.807Z,101620.19
2023-05-11T09:40:37.106Z,101620.94
2023-05-11T09:43:18.568Z,101620.94
2023-05-11T09:45:47.087Z,101621.63
2023-05-11T09:48:19.442Z,101622.34
2023-05-11T09:50:50.223Z,101620.78
2023-05-11T09:53:17.578Z,101615.09
2023-05-11T09:55:54.713Z,101614.31
2023-05-11T09:58:21.381Z,101621.84
2023-05-11T10:00:52.505Z,101618.78
2023-05-11T10:03:19.726Z,101614.25
2023-05-11T10:06:00.701Z,101612.38
2023-05-11T10:08:32.406Z,101614.25
2023-05-11T10:10:59.013Z,101611.63
2023-05-11T10:13:27.050Z,101608.97
2023-05-11T10:15:55.016Z,101606.69
2023-05-11T10:18:21.858Z,101603.34
2023-05-11T10:20:48.704Z,101607.50
2023-05-11T10:23:17.740Z,101604.84
2023-05-11T10:25:44.798Z,101603.34
2023-05-11T10:28:11.509Z,101606.38
2023-05-11T10:30:38.322Z,101599.94
2023-05-11T10:33:06.924Z,101602.59
2023-05-11T10:35:33.735Z,101604.88
2023-05-11T10:38:01.059Z,101605.25
2023-05-11T10:40:28.045Z,101604.50
2023-05-11T10:43:31.758Z,101595.09
2023-05-11T10:46:35.305Z,101597.75
2023-05-11T10:49:20.421Z,101593.22
2023-05-11T10:52:08.216Z,101597.38
2023-05-11T10:55:06.799Z,101606.81
2023-05-11T10:58:04.084Z,101604.91
2023-05-11T11:01:06.674Z,101594.75
2023-05-11T11:03:33.177Z,101591.34
2023-05-11T11:06:00.888Z,101596.63
2023-05-11T11:08:28.527Z,101597.78
2023-05-11T11:10:56.282Z,101594.38
2023-05-11T11:13:24.501Z,101589.50
2023-05-11T11:15:54.462Z,101603.44
2023-05-11T11:18:26.151Z,101595.16
2023-05-11T11:20:55.175Z,101592.53
2023-05-11T11:23:40.002Z,101603.84
2023-05-11T11:26:07.779Z,101601.56
2023-05-11T11:29:04.907Z,101604.97
2023-05-11T11:31:33.219Z,101605.75
2023-05-11T11:34:28.575Z,101608.00
2023-05-11T11:36:54.950Z,101612.53
2023-05-11T11:39:51.123Z,101618.97
2023-05-11T11:42:32.449Z,101620.88
2023-05-11T11:45:29.523Z,101614.41
2023-05-11T11:48:10.160Z,101621.25
2023-05-11T11:50:36.974Z,101613.69
2023-05-11T11:53:04.507Z,101629.16
2023-05-11T11:55:52.403Z,101627.25
2023-05-11T11:58:40.896Z,101626.13
2023-05-11T12:01:08.478Z,101625.78
2023-05-11T12:03:36.518Z,101629.56
2023-05-11T12:06:05.774Z,101624.66
2023-05-11T12:08:33.057Z,101624.66
2023-05-11T12:11:00.319Z,101628.81
2023-05-11T12:13:27.148Z,101632.59
2023-05-11T12:16:13.422Z,101633.34
2023-05-11T12:18:41.061Z,101643.59
2023-05-11T12:21:18.588Z,101646.56
2023-05-11T12:24:04.476Z,101643.59
2023-05-11T12:26:32.526Z,101648.09
2023-05-11T12:29:13.266Z,101638.28
2023-05-11T12:31:44.995Z,101656.03
2023-05-11T12:34:19.004Z,101647.34
2023-05-11T12:36:46.563Z,101643.97
2023-05-11T12:39:19.556Z,101639.03
2023-05-11T12:41:48.061Z,101646.94
2023-05-11T12:44:16.814Z,101646.22
2023-05-11T12:46:47.933Z,101656.03
2023-05-11T12:49:26.239Z,101654.88
2023-05-11T12:51:59.412Z,101656.41
2023-05-11T12:54:30.252Z,101654.53
2023-05-11T12:56:57.430Z,101643.19
2023-05-11T12:59:34.247Z,101656.78
2023-05-11T13:02:29.995Z,101654.53
2023-05-11T13:04:56.537Z,101657.16
2023-05-11T13:07:26.921Z,101661.31
2023-05-11T13:09:58.176Z,101654.53
2023-05-11T13:12:25.753Z,101643.56
2023-05-11T13:15:12.857Z,101641.31
2023-05-11T13:17:41.686Z,101648.84
2023-05-11T13:20:17.029Z,101645.50
2023-05-11T13:22:44.529Z,101650.00
2023-05-11T13:25:10.991Z,101637.91
2023-05-11T13:27:38.479Z,101635.66
2023-05-11T13:30:05.712Z,101634.91
2023-05-11T13:32:32.300Z,101636.03
2023-05-11T13:35:02.322Z,101640.56
2023-05-11T13:37:28.855Z,101633.78
2023-05-11T13:39:55.491Z,101628.50
2023-05-11T13:42:21.989Z,101622.44
2023-05-11T13:44:48.430Z,101622.84
2023-05-11T13:47:15.032Z,101620.56
2023-05-11T13:49:42.193Z,101622.84
2023-05-11T13:52:08.976Z,101621.69
2023-05-11T13:54:35.409Z,101623.19
2023-05-11T13:57:01.990Z,101623.56
2023-05-11T13:59:28.425Z,101621.31
2023-05-11T14:01:54.978Z,101621.69
2023-05-11T14:04:21.586Z,101612.25
2023-05-11T14:06:48.001Z,101605.47
2023-05-11T14:09:14.438Z,101610.00
2023-05-11T14:11:40.934Z,101613.00
2023-05-11T14:14:07.416Z,101608.47
2023-05-11T14:16:33.920Z,101610.38
2023-05-11T14:19:00.635Z,101613.75
2023-05-11T14:21:27.149Z,101618.28
2023-05-11T14:24:10.013Z,101619.06
2023-05-11T14:26:38.426Z,101617.91
2023-05-11T14:29:04.943Z,101616.03
2023-05-11T14:31:31.698Z,101613.38
2023-05-11T14:33:58.515Z,101610.75
2023-05-11T14:36:25.065Z,101613.78
2023-05-11T14:38:51.988Z,101612.28
2023-05-11T14:41:19.015Z,101612.63
2023-05-11T14:43:48.079Z,101616.03
2023-05-11T14:46:14.994Z,101618.28
2023-05-11T14:48:41.986Z,101620.94
2023-05-11T14:51:08.431Z,101611.53
2023-05-11T14:53:35.022Z,101626.66
2023-05-11T14:56:01.564Z,101625.84
2023-05-11T14:58:28.164Z,101624.00
2023-05-11T15:00:54.547Z,101627.41
2023-05-11T15:03:21.137Z,101628.16
2023-05-11T15:05:47.872Z,101627.38
2023-05-11T15:08:28.513Z,101633.44
2023-05-11T15:10:56.789Z,101628.91
2023-05-11T15:13:23.944Z,101628.16
2023-05-11T15:15:51.388Z,101626.25
2023-05-11T15:18:18.077Z,101629.66
2023-05-11T15:20:44.797Z,101630.03
2023-05-11T15:23:11.815Z,101623.63
2023-05-11T15:25:38.427Z,101624.72
2023-05-11T15:28:06.170Z,101619.44
2023-05-11T15:30:32.969Z,101620.56
2023-05-11T15:32:59.669Z,101625.09
2023-05-11T15:35:26.142Z,101628.91
2023-05-11T15:37:52.611Z,101640.19
2023-05-11T15:40:19.297Z,101645.88
2023-05-11T15:42:45.809Z,101637.91
2023-05-11T15:45:12.470Z,101641.66
2023-05-11T15:47:38.949Z,101638.66
2023-05-11T15:50:06.270Z,101637.16
2023-05-11T15:52:32.776Z,101641.28
2023-05-11T15:54:59.231Z,101641.25
2023-05-11T15:57:25.737Z,101642.78
2023-05-11T15:59:52.198Z,101640.88
2023-05-11T16:02:18.674Z,101633.72
2023-05-11T16:04:45.349Z,101633.34
2023-05-11T16:07:11.781Z,101635.59
2023-05-11T16:09:38.352Z,101642.03
2023-05-11T16:12:05.212Z,101625.78
2023-05-11T16:14:32.069Z,101631.44
2023-05-11T16:16:59.602Z,101628.81
2023-05-11T16:19:26.414Z,101628.81
2023-05-11T16:21:53.211Z,101615.94
2023-05-11T16:24:19.589Z,101615.22
2023-05-11T16:26:46.137Z,101612.97
2023-05-11T16:29:12.604Z,101612.94
2023-05-11T16:31:39.039Z,101614.06
2023-05-11T16:34:05.535Z,101616.34
2023-05-11T16:36:32.066Z,101619.75
2023-05-11T16:38:58.698Z,101631.44
2023-05-11T16:41:28.010Z,101626.91
2023-05-11T16:43:55.574Z,101631.44
2023-05-11T16:46:22.584Z,101630.69
2023-05-11T16:48:49.059Z,101628.03
2023-05-11T16:51:15.599Z,101637.13
2023-05-11T16:53:42.116Z,101644.31
2023-05-11T16:56:08.597Z,101648.84
2023-05-11T16:58:35.427Z,101642.81
2023-05-11T17:01:02.095Z,101645.44
2023-05-11T17:03:28.766Z,101651.47
2023-05-11T17:05:56.076Z,101649.22
2023-05-11T17:08:22.574Z,101650.75
2023-05-11T17:10:49.048Z,101659.03
2023-05-11T17:13:15.887Z,101662.44
2023-05-11T17:15:42.364Z,101664.72
2023-05-11T17:18:08.881Z,101661.66
2023-05-11T17:20:35.691Z,101668.84
2023-05-11T17:23:02.106Z,101659.03
2023-05-11T17:25:30.068Z,101658.31
2023-05-11T17:27:56.515Z,101660.94
2023-05-11T17:30:30.050Z,101665.09
2023-05-11T17:33:06.834Z,101657.16
2023-05-11T17:35:33.808Z,101664.31
2023-05-11T17:38:02.075Z,101667.38
2023-05-11T17:40:28.517Z,101666.97
2023-05-11T17:42:55.068Z,101663.22
2023-05-11T17:45:21.659Z,101661.31
2023-05-11T17:47:50.227Z,101645.81
2023-05-11T17:50:17.995Z,101665.84
2023-05-11T17:52:44.506Z,101664.34
2023-05-11T17:55:11.234Z,101660.59
2023-05-11T17:57:37.942Z,101663.22
2023-05-11T18:00:06.240Z,101665.84
2023-05-11T18:02:32.925Z,101661.66
2023-05-11T18:05:00.805Z,101657.53
2023-05-11T18:07:27.250Z,101661.34
2023-05-11T18:09:53.732Z,101661.69
2023-05-11T18:12:20.166Z,101662.06
2023-05-11T18:14:46.743Z,101662.44
2023-05-11T18:17:14.339Z,101662.06
2023-05-11T18:19:40.812Z,101660.59
2023-05-11T18:22:07.291Z,101666.63
2023-05-11T18:24:33.777Z,101660.59
2023-05-11T18:27:00.291Z,101656.06
2023-05-11T18:29:26.778Z,101657.94
2023-05-11T18:31:53.736Z,101660.59
2023-05-11T18:34:20.276Z,101658.69
2023-05-11T18:36:46.884Z,101661.72
2023-05-11T18:39:14.507Z,101665.44
2023-05-11T18:41:41.217Z,101669.63
2023-05-11T18:44:08.267Z,101670.41
2023-05-11T18:46:34.753Z,101669.66
2023-05-11T18:49:01.194Z,101673.06
2023-05-11T18:51:27.677Z,101677.94
2023-05-11T18:53:54.780Z,101675.72
2023-05-11T18:56:22.311Z,101671.91
2023-05-11T18:58:50.301Z,101683.63
2023-05-11T19:01:18.057Z,101677.19
2023-05-11T19:03:45.048Z,101679.09
2023-05-11T19:06:12.084Z,101676.06
2023-05-11T19:08:38.626Z,101679.47
2023-05-11T19:11:07.376Z,101690.03
2023-05-11T19:13:34.318Z,101698.34
2023-05-11T19:16:01.360Z,101697.94
2023-05-11T19:18:28.523Z,101707.75
2023-05-11T19:20:55.518Z,101699.50
2023-05-11T19:23:22.232Z,101708.16
2023-05-11T19:25:48.706Z,101711.88
2023-05-11T19:28:15.169Z,101711.53
2023-05-11T19:30:41.629Z,101716.41
2023-05-11T19:33:08.107Z,101726.97
2023-05-11T19:35:34.608Z,101718.66
2023-05-11T19:38:01.128Z,101720.16
2023-05-11T19:40:45.463Z,101723.53
2023-05-11T19:43:13.458Z,101719.75
2023-05-11T19:45:43.357Z,101721.63
2023-05-11T19:48:09.950Z,101728.06
2023-05-11T19:50:36.443Z,101733.69
2023-05-11T19:53:02.872Z,101732.19
2023-05-11T19:55:29.593Z,101740.47
2023-05-11T19:57:56.071Z,101736.69
2023-05-11T20:00:25.238Z,101740.84
2023-05-11T20:02:52.513Z,101735.53
2023-05-11T20:05:19.131Z,101735.53
2023-05-11T20:07:45.897Z,101740.44
2023-05-11T20:10:15.549Z,101750.28
2023-05-11T20:12:41.992Z,101746.91
2023-05-11T20:15:09.809Z,101753.34
2023-05-11T20:17:36.691Z,101747.66
2023-05-11T20:20:03.802Z,101753.75
2023-05-11T20:22:31.354Z,101752.59
2023-05-11T20:24:57.812Z,101757.91
2023-05-11T20:27:24.541Z,101763.19
2023-05-11T20:29:50.988Z,101762.44
2023-05-11T20:32:18.438Z,101767.75
2023-05-11T20:34:44.907Z,101763.25
2023-05-11T20:37:11.456Z,101759.44
2023-05-11T20:39:38.401Z,101759.44
2023-05-11T20:42:05.002Z,101764.75
2023-05-11T20:44:31.589Z,101766.28
2023-05-11T20:46:58.055Z,101758.72
2023-05-11T20:49:37.612Z,101758.31
2023-05-11T20:52:05.975Z,101760.22
2023-05-11T20:54:34.747Z,101757.94
2023-05-11T20:57:04.299Z,101757.97
2023-05-11T21:02:01.225Z,101758.00
2023-05-11T21:04:29.820Z,101761.00
2023-05-11T21:06:56.298Z,101761.75
2023-05-11T21:09:22.785Z,101757.22
2023-05-11T21:11:49.319Z,101757.22
2023-05-11T21:14:15.860Z,101752.31
2023-05-11T21:16:42.826Z,101757.22
2023-05-11T21:19:09.517Z,101757.97
2023-05-11T21:21:36.115Z,101761.75
2023-05-11T21:24:02.602Z,101756.47
2023-05-11T21:26:29.048Z,101759.13
2023-05-11T21:28:57.146Z,101758.38
2023-05-11T21:31:23.747Z,101754.97
2023-05-11T21:33:50.273Z,101762.50
2023-05-11T21:36:16.729Z,101765.53
2023-05-11T21:38:43.139Z,101765.16
2023-05-11T21:41:09.671Z,101771.94
2023-05-11T21:43:36.122Z,101766.66
2023-05-11T21:46:02.741Z,101769.31
2023-05-11T21:48:29.731Z,101767.03
2023-05-11T21:50:56.213Z,101769.31
2023-05-11T21:53:23.890Z,101775.34
2023-05-11T21:55:50.564Z,101769.31
2023-05-11T21:58:20.147Z,101771.16
2023-05-11T22:00:46.678Z,101772.72
2023-05-11T22:03:13.321Z,101774.22
2023-05-11T22:05:39.921Z,101772.69
2023-05-11T22:08:13.945Z,101773.81
2023-05-11T22:10:41.713Z,101770.81
2023-05-11T22:13:08.185Z,101775.34
2023-05-11T22:15:34.588Z,101773.09
2023-05-11T22:18:01.029Z,101771.97
2023-05-11T22:20:27.570Z,101769.31
2023-05-11T22:22:54.032Z,101775.38
2023-05-11T22:25:21.686Z,101771.97
2023-05-11T22:27:48.166Z,101767.03
2023-05-11T22:30:14.769Z,101772.31
2023-05-11T22:32:41.340Z,101766.28
2023-05-11T22:35:08.266Z,101767.03
2023-05-11T22:37:34.722Z,101767.03
2023-05-11T22:40:01.171Z,101765.56
2023-05-11T22:42:30.846Z,101761.75
2023-05-11T22:44:57.816Z,101761.00
2023-05-11T22:47:24.586Z,101765.13
2023-05-11T22:49:51.224Z,101767.03
2023-05-11T22:52:17.927Z,101762.50
2023-05-11T22:54:44.360Z,101773.47
2023-05-11T22:57:13.446Z,101766.69
2023-05-11T22:59:39.886Z,101765.56
2023-05-11T23:02:06.447Z,101763.28
2023-05-11T23:04:32.968Z,101763.28
2023-05-11T23:06:59.786Z,101761.75
2023-05-11T23:09:26.613Z,101757.97
2023-05-11T23:11:53.392Z,101765.50
2023-05-11T23:14:19.870Z,101758.00
2023-05-11T23:16:46.657Z,101760.22
2023-05-11T23:19:13.200Z,101760.22
2023-05-11T23:21:39.670Z,101757.22
2023-05-11T23:24:07.044Z,101753.47
2023-05-11T23:26:33.781Z,101760.28
2023-05-11T23:29:00.403Z,101762.50
2023-05-11T23:31:28.406Z,101756.88
2023-05-11T23:33:55.278Z,101763.66
2023-05-11T23:36:21.770Z,101759.13
2023-05-11T23:38:48.257Z,101755.72
2023-05-11T23:41:14.767Z,101755.72
2023-05-11T23:43:41.584Z,101759.13
2023-05-11T23:46:08.094Z,101753.47
2023-05-11T23:48:34.858Z,101756.13
2023-05-11T23:51:01.469Z,101757.63
2023-05-11T23:53:28.083Z,101758.00
2023-05-11T23:55:54.718Z,101759.88
2023-05-11T23:58:21.268Z,101762.16
